sensor_id;sensor_type;location;lat;lon;timestamp;pressure;altitude;pressure_sealevel;temperature;humidity
48089;BME280;33867;50.314;7.802;2023-04-28T00:02:57;100187.19;;;10.93;nan
48089;BME280;33867;50.314;7.802;2023-04-28T00:06:15;100182.69;;;10.83;nan
48089;BME280;33867;50.314;7.802;2023-04-28T00:09:35;100191.50;;;10.76;nan
48089;BME280;33867;50.314;7.802;2023-04-28T00:12:54;100180.72;;;10.76;nan
48089;BME280;33867;50.314;7.802;2023-04-28T00:16:13;100176.50;;;10.73;nan
48089;BME280;33867;50.314;7.802;2023-04-28T00:19:32;100186.41;;;10.73;nan
48089;BME280;33867;50.314;7.802;2023-04-28T00:22:52;100179.59;;;10.78;nan
48089;BME280;33867;50.314;7.802;2023-04-28T00:26:11;100168.03;;;10.68;nan
48089;BME280;33867;50.314;7.802;2023-04-28T00:29:31;100178.19;;;10.74;nan
48089;BME280;33867;50.314;7.802;2023-04-28T00:32:50;100171.41;;;10.70;nan
48089;BME280;33867;50.314;7.802;2023-04-28T00:36:10;100177.28;;;10.83;nan
48089;BME280;33867;50.314;7.802;2023-04-28T00:39:29;100171.16;;;10.64;nan
48089;BME280;33867;50.314;7.802;2023-04-28T00:42:48;100159.88;;;10.50;nan
48089;BME280;33867;50.314;7.802;2023-04-28T00:46:07;100153.34;;;10.53;nan
48089;BME280;33867;50.314;7.802;2023-04-28T00:49:27;100147.44;;;10.40;nan
48089;BME280;33867;50.314;7.802;2023-04-28T00:52:46;100146.34;;;10.33;nan
48089;BME280;33867;50.314;7.802;2023-04-28T00:56:06;100138.31;;;10.23;nan
48089;BME280;33867;50.314;7.802;2023-04-28T00:59:25;100133.19;;;10.20;nan
48089;BME280;33867;50.314;7.802;2023-04-28T01:02:44;100131.22;;;10.22;nan
48089;BME280;33867;50.314;7.802;2023-04-28T01:06:04;100126.53;;;10.24;nan
48089;BME280;33867;50.314;7.802;2023-04-28T01:09:25;100123.81;;;10.34;nan
48089;BME280;33867;50.314;7.802;2023-04-28T01:12:45;100124.13;;;10.31;nan
48089;BME280;33867;50.314;7.802;2023-04-28T01:16:05;100113.25;;;10.03;nan
48089;BME280;33867;50.314;7.802;2023-04-28T01:19:25;100124.84;;;10.13;nan
48089;BME280;33867;50.314;7.802;2023-04-28T01:22:45;100109.06;;;9.91;nan
48089;BME280;33867;50.314;7.802;2023-04-28T01:26:04;100111.16;;;9.97;nan
48089;BME280;33867;50.314;7.802;2023-04-28T01:29:26;100107.50;;;9.98;nan
48089;BME280;33867;50.314;7.802;2023-04-28T01:32:45;100100.63;;;10.13;nan
48089;BME280;33867;50.314;7.802;2023-04-28T01:36:07;100094.25;;;10.14;nan
48089;BME280;33867;50.314;7.802;2023-04-28T01:39:29;100093.69;;;10.20;nan
48089;BME280;33867;50.314;7.802;2023-04-28T01:42:48;100098.22;;;10.20;nan
48089;BME280;33867;50.314;7.802;2023-04-28T01:46:07;100091.41;;;10.16;nan
48089;BME280;33867;50.314;7.802;2023-04-28T01:49:29;100087.47;;;10.20;nan
48089;BME280;33867;50.314;7.802;2023-04-28T01:52:48;100103.47;;;10.21;nan
48089;BME280;33867;50.314;7.802;2023-04-28T01:56:07;100098.78;;;10.23;nan
48089;BME280;33867;50.314;7.802;2023-04-28T01:59:29;100088.56;;;10.17;nan
48089;BME280;33867;50.314;7.802;2023-04-28T02:02:48;100093.84;;;10.19;nan
48089;BME280;33867;50.314;7.802;2023-04-28T02:06:08;100088.03;;;10.23;nan
48089;BME280;33867;50.314;7.802;2023-04-28T02:09:27;100086.03;;;10.25;nan
48089;BME280;33867;50.314;7.802;2023-04-28T02:12:48;100093.41;;;10.23;nan
48089;BME280;33867;50.314;7.802;2023-04-28T02:16:08;100092.41;;;10.24;nan
48089;BME280;33867;50.314;7.802;2023-04-28T02:19:28;100089.03;;;10.22;nan
48089;BME280;33867;50.314;7.802;2023-04-28T02:22:47;100081.50;;;10.16;nan
48089;BME280;33867;50.314;7.802;2023-04-28T02:26:07;100068.22;;;10.05;nan
48089;BME280;33867;50.314;7.802;2023-04-28T02:29:26;100068.19;;;10.15;nan
48089;BME280;33867;50.314;7.802;2023-04-28T02:32:46;100068.19;;;10.15;nan
48089;BME280;33867;50.314;7.802;2023-04-28T02:36:09;100060.28;;;10.13;nan
48089;BME280;33867;50.314;7.802;2023-04-28T02:39:28;100057.28;;;10.16;nan
48089;BME280;33867;50.314;7.802;2023-04-28T02:42:49;100050.16;;;9.98;nan
48089;BME280;33867;50.314;7.802;2023-04-28T02:46:08;100041.34;;;10.05;nan
48089;BME280;33867;50.314;7.802;2023-04-28T02:49:28;100046.72;;;10.05;nan
48089;BME280;33867;50.314;7.802;2023-04-28T02:52:47;100042.94;;;9.98;nan
48089;BME280;33867;50.314;7.802;2023-04-28T02:56:06;100048.41;;;10.06;nan
48089;BME280;33867;50.314;7.802;2023-04-28T02:59:29;100034.53;;;10.11;nan
48089;BME280;33867;50.314;7.802;2023-04-28T03:02:48;100036.53;;;10.09;nan
48089;BME280;33867;50.314;7.802;2023-04-28T03:06:10;100037.25;;;10.01;nan
48089;BME280;33867;50.314;7.802;2023-04-28T03:09:29;100026.13;;;9.86;nan
48089;BME280;33867;50.314;7.802;2023-04-28T03:12:51;100023.34;;;9.68;nan
48089;BME280;33867;50.314;7.802;2023-04-28T03:16:15;100012.03;;;9.75;nan
48089;BME280;33867;50.314;7.802;2023-04-28T03:19:34;100021.13;;;9.64;nan
48089;BME280;33867;50.314;7.802;2023-04-28T03:22:55;100019.59;;;9.42;nan
48089;BME280;33867;50.314;7.802;2023-04-28T03:26:15;100021.19;;;9.16;nan
48089;BME280;33867;50.314;7.802;2023-04-28T03:29:34;100031.09;;;9.25;nan
48089;BME280;33867;50.314;7.802;2023-04-28T03:32:53;100026.03;;;9.02;nan
48089;BME280;33867;50.314;7.802;2023-04-28T03:36:12;100026.56;;;8.96;nan
48089;BME280;33867;50.314;7.802;2023-04-28T03:39:31;100019.25;;;8.89;nan
48089;BME280;33867;50.314;7.802;2023-04-28T03:42:51;100018.38;;;9.07;nan
48089;BME280;33867;50.314;7.802;2023-04-28T03:46:21;100013.16;;;9.16;nan
48089;BME280;33867;50.314;7.802;2023-04-28T03:49:41;100013.28;;;9.24;nan
48089;BME280;33867;50.314;7.802;2023-04-28T03:53:01;100001.13;;;9.10;nan
48089;BME280;33867;50.314;7.802;2023-04-28T03:56:21;99994.19;;;9.17;nan
48089;BME280;33867;50.314;7.802;2023-04-28T03:59:42;99986.28;;;9.25;nan
48089;BME280;33867;50.314;7.802;2023-04-28T04:03:02;99985.28;;;9.26;nan
48089;BME280;33867;50.314;7.802;2023-04-28T04:06:21;99978.47;;;9.22;nan
48089;BME280;33867;50.314;7.802;2023-04-28T04:09:40;99977.78;;;9.11;nan
48089;BME280;33867;50.314;7.802;2023-04-28T04:12:59;99970.47;;;9.03;nan
48089;BME280;33867;50.314;7.802;2023-04-28T04:16:21;99974.00;;;9.03;nan
48089;BME280;33867;50.314;7.802;2023-04-28T04:19:44;99975.44;;;8.78;nan
48089;BME280;33867;50.314;7.802;2023-04-28T04:23:04;99968.34;;;8.87;nan
48089;BME280;33867;50.314;7.802;2023-04-28T04:26:23;99974.28;;;8.81;nan
48089;BME280;33867;50.314;7.802;2023-04-28T04:29:43;99970.06;;;8.88;nan
48089;BME280;33867;50.314;7.802;2023-04-28T04:33:07;99970.06;;;8.88;nan
48089;BME280;33867;50.314;7.802;2023-04-28T04:36:30;99968.38;;;8.68;nan
48089;BME280;33867;50.314;7.802;2023-04-28T04:39:53;99974.59;;;8.78;nan
48089;BME280;33867;50.314;7.802;2023-04-28T04:43:12;99976.84;;;8.83;nan
48089;BME280;33867;50.314;7.802;2023-04-28T04:46:39;99967.53;;;8.77;nan
48089;BME280;33867;50.314;7.802;2023-04-28T04:49:58;99971.31;;;8.74;nan
48089;BME280;33867;50.314;7.802;2023-04-28T04:53:18;99971.03;;;8.87;nan
48089;BME280;33867;50.314;7.802;2023-04-28T04:56:40;99968.94;;;9.00;nan
48089;BME280;33867;50.314;7.802;2023-04-28T05:00:13;99976.00;;;9.01;nan
48089;BME280;33867;50.314;7.802;2023-04-28T05:22:02;99991.81;;;8.75;nan
48089;BME280;33867;50.314;7.802;2023-04-28T05:25:27;99990.41;;;8.81;nan
48089;BME280;33867;50.314;7.802;2023-04-28T05:28:51;100001.13;;;8.71;nan
48089;BME280;33867;50.314;7.802;2023-04-28T05:32:16;99998.91;;;8.76;nan
48089;BME280;33867;50.314;7.802;2023-04-28T05:35:48;99993.78;;;8.93;nan
48089;BME280;33867;50.314;7.802;2023-04-28T06:05:09;99993.94;;;9.01;nan
48089;BME280;33867;50.314;7.802;2023-04-28T06:08:53;99987.56;;;9.02;nan
48089;BME280;33867;50.314;7.802;2023-04-28T06:12:13;99980.50;;;8.91;nan
48089;BME280;33867;50.314;7.802;2023-04-28T06:22:50;99986.44;;;9.14;nan
48089;BME280;33867;50.314;7.802;2023-04-28T06:26:10;99994.06;;;9.09;nan
48089;BME280;33867;50.314;7.802;2023-04-28T06:29:31;99989.81;;;9.06;nan
48089;BME280;33867;50.314;7.802;2023-04-28T06:32:54;99994.03;;;9.28;nan
48089;BME280;33867;50.314;7.802;2023-04-28T06:36:20;99993.75;;;9.22;nan
48089;BME280;33867;50.314;7.802;2023-04-28T06:39:39;99982.06;;;9.13;nan
48089;BME280;33867;50.314;7.802;2023-04-28T06:42:59;99971.38;;;9.41;nan
48089;BME280;33867;50.314;7.802;2023-04-28T06:46:38;99971.38;;;9.50;nan
48089;BME280;33867;50.314;7.802;2023-04-28T06:50:02;99966.84;;;9.41;nan
48089;BME280;33867;50.314;7.802;2023-04-28T06:53:32;99959.25;;;9.36;nan
48089;BME280;33867;50.314;7.802;2023-04-28T06:56:52;99944.13;;;9.35;nan
48089;BME280;33867;50.314;7.802;2023-04-28T07:00:12;99938.25;;;9.59;nan
48089;BME280;33867;50.314;7.802;2023-04-28T07:03:33;99928.19;;;9.89;nan
48089;BME280;33867;50.314;7.802;2023-04-28T07:06:53;99934.84;;;10.12;nan
48089;BME280;33867;50.314;7.802;2023-04-28T07:10:12;99938.22;;;10.14;nan
48089;BME280;33867;50.314;7.802;2023-04-28T07:13:31;99955.44;;;10.31;nan
48089;BME280;33867;50.314;7.802;2023-04-28T07:16:50;99962.28;;;10.61;nan
48089;BME280;33867;50.314;7.802;2023-04-28T07:20:10;99959.38;;;10.72;nan
48089;BME280;33867;50.314;7.802;2023-04-28T07:23:30;99963.75;;;10.73;nan
48089;BME280;33867;50.314;7.802;2023-04-28T07:26:52;99971.91;;;10.64;nan
48089;BME280;33867;50.314;7.802;2023-04-28T07:30:23;99968.13;;;10.74;nan
48089;BME280;33867;50.314;7.802;2023-04-28T07:33:51;99959.53;;;10.71;nan
48089;BME280;33867;50.314;7.802;2023-04-28T07:37:12;99974.53;;;10.73;nan
48089;BME280;33867;50.314;7.802;2023-04-28T07:44:53;99974.53;;;10.91;nan
48089;BME280;33867;50.314;7.802;2023-04-28T07:48:15;99983.09;;;11.12;nan
48089;BME280;33867;50.314;7.802;2023-04-28T07:51:44;99990.41;;;11.20;nan
48089;BME280;33867;50.314;7.802;2023-04-28T07:55:13;99997.00;;;11.43;nan
48089;BME280;33867;50.314;7.802;2023-04-28T07:58:36;99978.03;;;11.53;nan
48089;BME280;33867;50.314;7.802;2023-04-28T08:02:04;99977.78;;;11.38;nan
48089;BME280;33867;50.314;7.802;2023-04-28T08:05:54;99969.06;;;11.79;nan
48089;BME280;33867;50.314;7.802;2023-04-28T08:09:57;99982.06;;;12.17;nan
48089;BME280;33867;50.314;7.802;2023-04-28T08:18:26;99984.75;;;12.59;nan
48089;BME280;33867;50.314;7.802;2023-04-28T08:22:00;99984.44;;;12.79;nan
48089;BME280;33867;50.314;7.802;2023-04-28T08:26:11;99985.28;;;12.71;nan
48089;BME280;33867;50.314;7.802;2023-04-28T08:40:06;100006.44;;;13.33;nan
48089;BME280;33867;50.314;7.802;2023-04-28T08:44:01;99994.56;;;13.01;nan
48089;BME280;33867;50.314;7.802;2023-04-28T08:57:44;99996.75;;;13.71;nan
48089;BME280;33867;50.314;7.802;2023-04-28T09:02:11;100001.16;;;14.19;nan
48089;BME280;33867;50.314;7.802;2023-04-28T09:06:36;99994.78;;;14.51;nan
48089;BME280;33867;50.314;7.802;2023-04-28T09:15:36;99989.81;;;14.86;nan
48089;BME280;33867;50.314;7.802;2023-04-28T09:29:13;99965.94;;;15.94;nan
48089;BME280;33867;50.314;7.802;2023-04-28T09:39:52;99963.75;;;17.90;nan
48089;BME280;33867;50.314;7.802;2023-04-28T09:43:35;99954.44;;;18.67;nan
48089;BME280;33867;50.314;7.802;2023-04-28T09:48:16;99950.31;;;18.91;nan
48089;BME280;33867;50.314;7.802;2023-04-28T09:56:43;99944.63;;;17.00;nan
48089;BME280;33867;50.314;7.802;2023-04-28T10:00:08;99935.09;;;16.89;nan
48089;BME280;33867;50.314;7.802;2023-04-28T10:04:05;99928.84;;;17.16;nan
48089;BME280;33867;50.314;7.802;2023-04-28T10:07:31;99930.63;;;17.87;nan
48089;BME280;33867;50.314;7.802;2023-04-28T10:10:54;99922.84;;;18.25;nan
48089;BME280;33867;50.314;7.802;2023-04-28T10:14:22;99922.53;;;18.61;nan
48089;BME280;33867;50.314;7.802;2023-04-28T10:17:42;99907.28;;;18.86;nan
48089;BME280;33867;50.314;7.802;2023-04-28T10:21:03;99918.00;;;19.21;nan
48089;BME280;33867;50.314;7.802;2023-04-28T10:24:28;99905.19;;;18.75;nan
48089;BME280;33867;50.314;7.802;2023-04-28T10:27:58;99910.34;;;18.57;nan
48089;BME280;33867;50.314;7.802;2023-04-28T10:31:26;99903.91;;;18.03;nan
48089;BME280;33867;50.314;7.802;2023-04-28T10:34:46;99907.22;;;17.99;nan
48089;BME280;33867;50.314;7.802;2023-04-28T10:41:31;99900.16;;;18.72;nan
48089;BME280;33867;50.314;7.802;2023-04-28T10:44:51;99888.41;;;18.91;nan
48089;BME280;33867;50.314;7.802;2023-04-28T10:48:10;99876.84;;;19.55;nan
48089;BME280;33867;50.314;7.802;2023-04-28T10:51:30;99888.13;;;19.52;nan
48089;BME280;33867;50.314;7.802;2023-04-28T10:58:51;99875.84;;;20.01;nan
48089;BME280;33867;50.314;7.802;2023-04-28T11:02:38;99869.59;;;20.32;nan
48089;BME280;33867;50.314;7.802;2023-04-28T11:13:28;99862.09;;;20.59;nan
48089;BME280;33867;50.314;7.802;2023-04-28T11:20:23;99852.31;;;22.00;nan
48089;BME280;33867;50.314;7.802;2023-04-28T11:23:44;99839.94;;;22.15;nan
48089;BME280;33867;50.314;7.802;2023-04-28T11:27:04;99827.06;;;22.99;nan
48089;BME280;33867;50.314;7.802;2023-04-28T11:30:23;99833.28;;;22.65;nan
48089;BME280;33867;50.314;7.802;2023-04-28T11:33:46;99833.13;;;23.72;nan
48089;BME280;33867;50.314;7.802;2023-04-28T11:37:07;99827.59;;;22.78;nan
48089;BME280;33867;50.314;7.802;2023-04-28T11:40:27;99830.25;;;23.43;nan
48089;BME280;33867;50.314;7.802;2023-04-28T11:43:46;99824.78;;;23.20;nan
48089;BME280;33867;50.314;7.802;2023-04-28T11:47:06;99822.88;;;22.85;nan
48089;BME280;33867;50.314;7.802;2023-04-28T11:50:36;99819.06;;;21.78;nan
48089;BME280;33867;50.314;7.802;2023-04-28T11:53:55;99829.22;;;20.66;nan
48089;BME280;33867;50.314;7.802;2023-04-28T11:57:19;99810.25;;;20.39;nan
48089;BME280;33867;50.314;7.802;2023-04-28T12:00:39;99813.94;;;21.08;nan
48089;BME280;33867;50.314;7.802;2023-04-28T12:03:58;99801.03;;;22.48;nan
48089;BME280;33867;50.314;7.802;2023-04-28T12:07:18;99806.75;;;23.47;nan
48089;BME280;33867;50.314;7.802;2023-04-28T12:10:37;99799.34;;;24.28;nan
48089;BME280;33867;50.314;7.802;2023-04-28T12:14:04;99801.22;;;23.71;nan
48089;BME280;33867;50.314;7.802;2023-04-28T12:17:32;99795.75;;;23.36;nan
48089;BME280;33867;50.314;7.802;2023-04-28T12:20:51;99794.22;;;23.04;nan
48089;BME280;33867;50.314;7.802;2023-04-28T12:24:15;99795.66;;;22.12;nan
48089;BME280;33867;50.314;7.802;2023-04-28T12:27:35;99792.97;;;22.24;nan
48089;BME280;33867;50.314;7.802;2023-04-28T12:31:05;99782.94;;;22.17;nan
48089;BME280;33867;50.314;7.802;2023-04-28T12:34:24;99785.13;;;21.42;nan
48089;BME280;33867;50.314;7.802;2023-04-28T12:37:43;99784.59;;;22.72;nan
48089;BME280;33867;50.314;7.802;2023-04-28T12:41:03;99788.81;;;22.74;nan
48089;BME280;33867;50.314;7.802;2023-04-28T12:44:22;99797.19;;;21.16;nan
48089;BME280;33867;50.314;7.802;2023-04-28T12:47:41;99790.41;;;21.25;nan
48089;BME280;33867;50.314;7.802;2023-04-28T12:51:00;99784.09;;;21.00;nan
48089;BME280;33867;50.314;7.802;2023-04-28T12:54:19;99777.91;;;20.86;nan
48089;BME280;33867;50.314;7.802;2023-04-28T12:57:38;99773.97;;;21.44;nan
48089;BME280;33867;50.314;7.802;2023-04-28T13:00:57;99766.41;;;22.36;nan
48089;BME280;33867;50.314;7.802;2023-04-28T13:04:17;99746.84;;;20.99;nan
48089;BME280;33867;50.314;7.802;2023-04-28T13:07:37;99741.31;;;21.42;nan
48089;BME280;33867;50.314;7.802;2023-04-28T13:10:55;99754.19;;;21.60;nan
48089;BME280;33867;50.314;7.802;2023-04-28T13:14:14;99740.47;;;21.23;nan
48089;BME280;33867;50.314;7.802;2023-04-28T13:17:34;99728.78;;;20.73;nan
48089;BME280;33867;50.314;7.802;2023-04-28T13:20:53;99752.34;;;20.49;nan
48089;BME280;33867;50.314;7.802;2023-04-28T13:24:15;99776.69;;;19.88;nan
48089;BME280;33867;50.314;7.802;2023-04-28T13:27:36;99836.31;;;19.33;nan
48089;BME280;33867;50.314;7.802;2023-04-28T13:35:41;99809.97;;;17.93;nan
48089;BME280;33867;50.314;7.802;2023-04-28T13:39:15;99819.94;;;18.40;nan
48089;BME280;33867;50.314;7.802;2023-04-28T13:42:50;99807.22;;;18.74;nan
48089;BME280;33867;50.314;7.802;2023-04-28T13:46:31;99796.88;;;21.06;nan
48089;BME280;33867;50.314;7.802;2023-04-28T13:54:01;99784.69;;;21.27;nan
48089;BME280;33867;50.314;7.802;2023-04-28T13:57:56;99764.94;;;21.18;nan
48089;BME280;33867;50.314;7.802;2023-04-28T14:01:43;99776.00;;;21.30;nan
48089;BME280;33867;50.314;7.802;2023-04-28T14:05:36;99770.66;;;20.10;nan
48089;BME280;33867;50.314;7.802;2023-04-28T14:23:31;99741.38;;;20.99;nan
48089;BME280;33867;50.314;7.802;2023-04-28T14:27:14;99731.56;;;21.95;nan
48089;BME280;33867;50.314;7.802;2023-04-28T14:40:40;99732.59;;;22.77;nan
48089;BME280;33867;50.314;7.802;2023-04-28T14:44:54;99735.31;;;21.52;nan
48089;BME280;33867;50.314;7.802;2023-04-28T14:49:22;99726.66;;;20.75;nan
48089;BME280;33867;50.314;7.802;2023-04-28T15:01:29;99726.91;;;19.34;nan
48089;BME280;33867;50.314;7.802;2023-04-28T15:05:44;99738.78;;;18.88;nan
48089;BME280;33867;50.314;7.802;2023-04-28T15:28:56;99736.97;;;17.20;nan
48089;BME280;33867;50.314;7.802;2023-04-28T15:32:18;99737.31;;;17.45;nan
48089;BME280;33867;50.314;7.802;2023-04-28T21:05:01;100021.81;;;12.33;nan
48089;BME280;33867;50.314;7.802;2023-04-28T21:08:21;100018.41;;;12.31;nan
